Time,TemperatureF,DewpointF,PressureIn,WindDirection,WindDirectionDegrees,WindSpeedMPH,WindSpeedGustMPH,Humidity,HourlyPrecipIn,Conditions,Clouds,dailyrainin,SoftwareType,DateUTC
2013-01-13 00:00:00,34.9,31.1,30.10,N/A,-737280,0.0,-999.0,86,0.00,,,0.00,Wunderground v.1.15,2013-01-13 08:00:00,
2013-01-13 00:05:00,34.9,31.1,30.10,N/A,-737280,0.0,-999.0,86,0.00,,,0.00,Wunderground v.1.15,2013-01-13 08:05:00,
2013-01-13 00:10:00,34.9,31.1,30.10,N/A,-737280,0.0,-999.0,86,0.00,,,0.00,Wunderground v.1.15,2013-01-13 08:10:00,
2013-01-13 00:15:00,34.9,31.4,30.10,N/A,-737280,0.0,-999.0,87,0.00,,,0.00,Wunderground v.1.15,2013-01-13 08:15:00,
2013-01-13 00:20:00,34.9,31.4,30.10,N/A,-737280,0.0,-999.0,87,0.00,,,0.00,Wunderground v.1.15,2013-01-13 08:20:00,
2013-01-13 00:25:00,34.9,31.4,30.10,N/A,-737280,0.0,-999.0,87,0.00,,,0.00,Wunderground v.1.15,2013-01-13 08:25:00,
2013-01-13 00:30:00,34.9,31.4,30.10,N/A,-737280,0.0,-999.0,87,0.00,,,0.00,Wunderground v.1.15,2013-01-13 08:30:00,
2013-01-13 00:35:00,35.2,31.7,30.10,N/A,-737280,0.0,-999.0,87,0.00,,,0.00,Wunderground v.1.15,2013-01-13 08:35:00,
2013-01-13 00:40:00,35.2,31.7,30.10,N/A,-737280,0.0,-999.0,87,0.00,,,0.00,Wunderground v.1.15,2013-01-13 08:40:00,
2013-01-13 00:45:00,35.3,31.8,30.10,N/A,-737280,0.0,-999.0,87,0.00,,,0.00,Wunderground v.1.15,2013-01-13 08:45:00,
2013-01-13 00:50:00,35.3,31.8,30.10,N/A,-737280,0.0,-999.0,87,0.00,,,0.00,Wunderground v.1.15,2013-01-13 08:50:00,
2013-01-13 00:55:00,35.2,31.7,30.10,N/A,-737280,0.0,-999.0,87,0.00,,,0.00,Wunderground v.1.15,2013-01-13 08:55:00,
2013-01-13 01:00:00,35.2,31.7,30.10,N/A,-737280,0.0,-999.0,87,0.00,,,0.00,Wunderground v.1.15,2013-01-13 09:00:00,
2013-01-13 01:05:00,34.8,31.0,30.09,N/A,-737280,0.0,-999.0,86,0.00,,,0.00,Wunderground v.1.15,2013-01-13 09:05:00,
2013-01-13 01:10:00,34.8,31.0,30.09,N/A,-737280,0.0,-999.0,86,0.00,,,0.00,Wunderground v.1.15,2013-01-13 09:10:00,
2013-01-13 01:15:00,34.4,30.6,30.10,N/A,-737280,0.0,-999.0,86,0.00,,,0.00,Wunderground v.1.15,2013-01-13 09:15:00,
2013-01-13 01:20:00,34.4,30.6,30.10,N/A,-737280,0.0,-999.0,86,0.00,,,0.00,Wunderground v.1.15,2013-01-13 09:20:00,
2013-01-13 01:25:00,34.3,30.8,30.10,N/A,-737280,0.0,-999.0,87,0.00,,,0.00,Wunderground v.1.15,2013-01-13 09:25:00,
2013-01-13 01:30:00,34.3,30.8,30.10,N/A,-737280,0.0,-999.0,87,0.00,,,0.00,Wunderground v.1.15,2013-01-13 09:30:00,
2013-01-13 01:35:00,34.5,31.0,30.11,N/A,-737280,0.0,-999.0,87,0.00,,,0.00,Wunderground v.1.15,2013-01-13 09:35:00,
2013-01-13 01:40:00,34.5,31.0,30.11,N/A,-737280,0.0,-999.0,87,0.00,,,0.00,Wunderground v.1.15,2013-01-13 09:40:00,
2013-01-13 01:45:00,34.5,31.0,30.11,N/A,-737280,0.0,-999.0,87,0.00,,,0.00,Wunderground v.1.15,2013-01-13 09:45:00,
2013-01-13 01:50:00,34.5,31.0,30.11,N/A,-737280,0.0,-999.0,87,0.00,,,0.00,Wunderground v.1.15,2013-01-13 09:50:00,
2013-01-13 01:55:00,34.4,30.9,30.10,N/A,-737280,0.0,-999.0,87,0.00,,,0.00,Wunderground v.1.15,2013-01-13 09:55:00,
2013-01-13 02:00:00,34.4,30.9,30.10,N/A,-737280,0.0,-999.0,87,0.00,,,0.00,Wunderground v.1.15,2013-01-13 10:00:00,
2013-01-13 02:05:00,34.5,31.0,30.10,N/A,-737280,0.0,-999.0,87,0.00,,,0.00,Wunderground v.1.15,2013-01-13 10:05:00,
2013-01-13 02:10:00,34.5,31.0,30.10,N/A,-737280,0.0,-999.0,87,0.00,,,0.00,Wunderground v.1.15,2013-01-13 10:10:00,
2013-01-13 02:15:00,34.6,31.4,30.10,N/A,-737280,0.0,-999.0,88,0.00,,,0.00,Wunderground v.1.15,2013-01-13 10:15:00,
2013-01-13 02:20:00,34.6,31.4,30.10,N/A,-737280,0.0,-999.0,88,0.00,,,0.00,Wunderground v.1.15,2013-01-13 10:20:00,
2013-01-13 02:25:00,34.9,31.7,30.10,N/A,-737280,0.0,-999.0,88,0.00,,,0.00,Wunderground v.1.15,2013-01-13 10:25:00,
2013-01-13 02:30:00,34.9,31.7,30.10,N/A,-737280,0.0,-999.0,88,0.00,,,0.00,Wunderground v.1.15,2013-01-13 10:30:00,
2013-01-13 02:35:00,35.1,31.9,30.10,N/A,-737280,0.0,-999.0,88,0.00,,,0.00,Wunderground v.1.15,2013-01-13 10:35:00,
2013-01-13 02:40:00,35.1,31.9,30.10,N/A,-737280,0.0,-999.0,88,0.00,,,0.00,Wunderground v.1.15,2013-01-13 10:40:00,
2013-01-13 02:45:00,35.2,32.0,30.10,N/A,-737280,0.0,-999.0,88,0.00,,,0.00,Wunderground v.1.15,2013-01-13 10:45:00,
2013-01-13 02:50:00,35.2,32.0,30.10,N/A,-737280,0.0,-999.0,88,0.00,,,0.00,Wunderground v.1.15,2013-01-13 10:50:00,
2013-01-13 02:55:00,35.4,32.2,30.10,N/A,-737280,0.0,-999.0,88,0.00,,,0.00,Wunderground v.1.15,2013-01-13 10:55:00,
2013-01-13 03:00:00,35.4,32.2,30.10,N/A,-737280,0.0,-999.0,88,0.00,,,0.00,Wunderground v.1.15,2013-01-13 11:00:00,
2013-01-13 03:05:00,35.5,32.3,30.10,N/A,-737280,0.0,-999.0,88,0.00,,,0.00,Wunderground v.1.15,2013-01-13 11:05:00,
2013-01-13 03:10:00,35.5,32.3,30.10,N/A,-737280,0.0,-999.0,88,0.00,,,0.00,Wunderground v.1.15,2013-01-13 11:10:00,
2013-01-13 03:15:00,35.6,32.4,30.11,N/A,-737280,0.0,-999.0,88,0.00,,,0.00,Wunderground v.1.15,2013-01-13 11:15:00,
2013-01-13 03:20:00,35.6,32.4,30.11,N/A,-737280,0.0,-999.0,88,0.00,,,0.00,Wunderground v.1.15,2013-01-13 11:20:00,
2013-01-13 03:25:00,35.6,32.1,30.10,N/A,-737280,0.0,-999.0,87,0.00,,,0.00,Wunderground v.1.15,2013-01-13 11:25:00,
2013-01-13 03:30:00,35.6,32.1,30.10,N/A,-737280,0.0,-999.0,87,0.00,,,0.00,Wunderground v.1.15,2013-01-13 11:30:00,
2013-01-13 03:35:00,35.5,32.0,30.10,N/A,-737280,0.0,-999.0,87,0.00,,,0.00,Wunderground v.1.15,2013-01-13 11:35:00,
2013-01-13 03:40:00,35.5,32.0,30.10,N/A,-737280,0.0,-999.0,87,0.00,,,0.00,Wunderground v.1.15,2013-01-13 11:40:00,
2013-01-13 03:45:00,35.6,32.1,30.10,SW,225,0.0,-999.0,87,0.00,,,0.00,Wunderground v.1.15,2013-01-13 11:45:00,
2013-01-13 03:50:00,35.6,32.1,30.10,SW,225,0.0,-999.0,87,0.00,,,0.00,Wunderground v.1.15,2013-01-13 11:50:00,
2013-01-13 03:55:00,35.4,31.6,30.10,SW,225,0.0,-999.0,86,0.00,,,0.00,Wunderground v.1.15,2013-01-13 11:55:00,
2013-01-13 04:00:00,35.4,31.6,30.10,SW,225,0.0,-999.0,86,0.00,,,0.00,Wunderground v.1.15,2013-01-13 12:00:00,
2013-01-13 04:05:00,35.2,31.1,30.10,N/A,-737280,0.0,-999.0,85,0.00,,,0.00,Wunderground v.1.15,2013-01-13 12:05:00,
2013-01-13 04:10:00,35.2,31.1,30.10,N/A,-737280,0.0,-999.0,85,0.00,,,0.00,Wunderground v.1.15,2013-01-13 12:10:00,
2013-01-13 04:15:00,35.3,31.2,30.10,N/A,-737280,0.0,-999.0,85,0.00,,,0.00,Wunderground v.1.15,2013-01-13 12:15:00,
2013-01-13 04:20:00,35.3,31.2,30.10,N/A,-737280,0.0,-999.0,85,0.00,,,0.00,Wunderground v.1.15,2013-01-13 12:20:00,
2013-01-13 04:25:00,35.1,30.8,30.10,N/A,-737280,0.0,-999.0,84,0.00,,,0.00,Wunderground v.1.15,2013-01-13 12:25:00,
2013-01-13 04:30:00,35.1,30.8,30.10,N/A,-737280,0.0,-999.0,84,0.00,,,0.00,Wunderground v.1.15,2013-01-13 12:30:00,
2013-01-13 04:35:00,34.8,30.5,30.10,N/A,-737280,0.0,-999.0,84,0.00,,,0.00,Wunderground v.1.15,2013-01-13 12:35:00,
2013-01-13 04:40:00,34.8,30.5,30.10,N/A,-737280,0.0,-999.0,84,0.00,,,0.00,Wunderground v.1.15,2013-01-13 12:40:00,
2013-01-13 04:45:00,34.5,30.2,30.10,N/A,-737280,0.0,-999.0,84,0.00,,,0.00,Wunderground v.1.15,2013-01-13 12:45:00,
2013-01-13 04:50:00,34.5,30.2,30.10,N/A,-737280,0.0,-999.0,84,0.00,,,0.00,Wunderground v.1.15,2013-01-13 12:50:00,
2013-01-13 04:55:00,34.2,29.9,30.10,N/A,-737280,0.0,-999.0,84,0.00,,,0.00,Wunderground v.1.15,2013-01-13 12:55:00,
2013-01-13 05:00:00,34.2,29.9,30.10,N/A,-737280,0.0,-999.0,84,0.00,,,0.00,Wunderground v.1.15,2013-01-13 13:00:00,
2013-01-13 05:05:00,34.0,30.0,30.11,N/A,-737280,0.0,-999.0,85,0.00,,,0.00,Wunderground v.1.15,2013-01-13 13:05:00,
2013-01-13 05:10:00,34.0,30.0,30.11,N/A,-737280,0.0,-999.0,85,0.00,,,0.00,Wunderground v.1.15,2013-01-13 13:10:00,
2013-01-13 05:15:00,33.6,29.6,30.11,N/A,-737280,0.0,-999.0,85,0.00,,,0.00,Wunderground v.1.15,2013-01-13 13:15:00,
2013-01-13 05:20:00,33.6,29.6,30.11,N/A,-737280,0.0,-999.0,85,0.00,,,0.00,Wunderground v.1.15,2013-01-13 13:20:00,
2013-01-13 05:25:00,33.2,29.2,30.12,N/A,-737280,0.0,-999.0,85,0.00,,,0.00,Wunderground v.1.15,2013-01-13 13:25:00,
2013-01-13 05:30:00,33.2,29.2,30.12,N/A,-737280,0.0,-999.0,85,0.00,,,0.00,Wunderground v.1.15,2013-01-13 13:30:00,
2013-01-13 05:35:00,33.1,29.4,30.12,N/A,-737280,0.0,-999.0,86,0.00,,,0.00,Wunderground v.1.15,2013-01-13 13:35:00,
2013-01-13 05:40:00,33.1,29.4,30.12,N/A,-737280,0.0,-999.0,86,0.00,,,0.00,Wunderground v.1.15,2013-01-13 13:40:00,
2013-01-13 05:45:00,32.8,29.1,30.12,N/A,-737280,0.0,-999.0,86,0.00,,,0.00,Wunderground v.1.15,2013-01-13 13:45:00,
2013-01-13 05:50:00,32.8,29.1,30.12,N/A,-737280,0.0,-999.0,86,0.00,,,0.00,Wunderground v.1.15,2013-01-13 13:50:00,
2013-01-13 05:55:00,32.6,28.9,30.13,N/A,-737280,0.0,-999.0,86,0.00,,,0.00,Wunderground v.1.15,2013-01-13 13:55:00,
2013-01-13 06:00:00,32.6,28.9,30.13,N/A,-737280,0.0,-999.0,86,0.00,,,0.00,Wunderground v.1.15,2013-01-13 14:00:00,
2013-01-13 06:05:00,32.4,28.7,30.13,N/A,-737280,0.0,-999.0,86,0.00,,,0.00,Wunderground v.1.15,2013-01-13 14:05:00,
2013-01-13 06:10:00,32.4,28.7,30.13,N/A,-737280,0.0,-999.0,86,0.00,,,0.00,Wunderground v.1.15,2013-01-13 14:10:00,
2013-01-13 06:15:00,32.2,28.5,30.13,N/A,-737280,0.0,-999.0,86,0.00,,,0.00,Wunderground v.1.15,2013-01-13 14:15:00,
2013-01-13 06:20:00,32.2,28.5,30.13,N/A,-737280,0.0,-999.0,86,0.00,,,0.00,Wunderground v.1.15,2013-01-13 14:20:00,
2013-01-13 06:25:00,32.2,28.8,30.13,N/A,-737280,0.0,-999.0,87,0.00,,,0.00,Wunderground v.1.15,2013-01-13 14:25:00,
2013-01-13 06:30:00,32.2,28.8,30.13,N/A,-737280,0.0,-999.0,87,0.00,,,0.00,Wunderground v.1.15,2013-01-13 14:30:00,
2013-01-13 06:35:00,32.3,28.9,30.13,N/A,-737280,0.0,-999.0,87,0.00,,,0.00,Wunderground v.1.15,2013-01-13 14:35:00,
2013-01-13 06:40:00,32.3,28.9,30.13,N/A,-737280,0.0,-999.0,87,0.00,,,0.00,Wunderground v.1.15,2013-01-13 14:40:00,
2013-01-13 06:45:00,32.1,28.7,30.13,N/A,-737280,0.0,-999.0,87,0.00,,,0.00,Wunderground v.1.15,2013-01-13 14:45:00,
2013-01-13 06:50:00,32.1,28.7,30.13,N/A,-737280,0.0,-999.0,87,0.00,,,0.00,Wunderground v.1.15,2013-01-13 14:50:00,
2013-01-13 06:55:00,31.8,28.4,30.14,N/A,-737280,0.0,-999.0,87,0.00,,,0.00,Wunderground v.1.15,2013-01-13 14:55:00,
2013-01-13 07:00:00,31.8,28.4,30.14,N/A,-737280,0.0,-999.0,87,0.00,,,0.00,Wunderground v.1.15,2013-01-13 15:00:00,
2013-01-13 07:05:00,31.5,28.1,30.14,N/A,-737280,0.0,-999.0,87,0.00,,,0.00,Wunderground v.1.15,2013-01-13 15:05:00,
2013-01-13 07:10:00,31.5,28.1,30.14,N/A,-737280,0.0,-999.0,87,0.00,,,0.00,Wunderground v.1.15,2013-01-13 15:10:00,
2013-01-13 07:15:00,31.4,28.0,30.14,N/A,-737280,0.0,-999.0,87,0.00,,,0.00,Wunderground v.1.15,2013-01-13 15:15:00,
2013-01-13 07:20:00,31.4,28.0,30.14,N/A,-737280,0.0,-999.0,87,0.00,,,0.00,Wunderground v.1.15,2013-01-13 15:20:00,
2013-01-13 07:25:00,31.6,28.5,30.14,N/A,-737280,0.0,-999.0,88,0.00,,,0.00,Wunderground v.1.15,2013-01-13 15:25:00,
2013-01-13 07:30:00,31.6,28.5,30.14,N/A,-737280,0.0,-999.0,88,0.00,,,0.00,Wunderground v.1.15,2013-01-13 15:30:00,
2013-01-13 07:35:00,32.0,28.8,30.14,N/A,-737280,0.0,-999.0,88,0.00,,,0.00,Wunderground v.1.15,2013-01-13 15:35:00,
2013-01-13 07:40:00,32.0,28.8,30.14,N/A,-737280,0.0,-999.0,88,0.00,,,0.00,Wunderground v.1.15,2013-01-13 15:40:00,
2013-01-13 07:45:00,33.0,29.8,30.14,N/A,-737280,0.0,-999.0,88,0.00,,,0.00,Wunderground v.1.15,2013-01-13 15:45:00,
2013-01-13 07:50:00,33.0,29.8,30.14,N/A,-737280,0.0,-999.0,88,0.00,,,0.00,Wunderground v.1.15,2013-01-13 15:50:00,
2013-01-13 07:55:00,34.3,31.1,30.15,N/A,-737280,0.0,-999.0,88,0.00,,,0.00,Wunderground v.1.15,2013-01-13 15:55:00,
2013-01-13 08:00:00,34.3,31.1,30.15,N/A,-737280,0.0,-999.0,88,0.00,,,0.00,Wunderground v.1.15,2013-01-13 16:00:00,
2013-01-13 08:05:00,35.6,31.8,30.15,SW,225,0.0,-999.0,86,0.00,,,0.00,Wunderground v.1.15,2013-01-13 16:05:00,
2013-01-13 08:10:00,35.6,31.8,30.15,SW,225,0.0,-999.0,86,0.00,,,0.00,Wunderground v.1.15,2013-01-13 16:10:00,
2013-01-13 08:15:00,37.2,32.2,30.15,SW,225,0.0,-999.0,82,0.00,,,0.00,Wunderground v.1.15,2013-01-13 16:15:00,
2013-01-13 08:20:00,37.2,32.2,30.15,SW,225,0.0,-999.0,82,0.00,,,0.00,Wunderground v.1.15,2013-01-13 16:20:00,
2013-01-13 08:25:00,39.0,31.7,30.15,SW,225,0.0,-999.0,75,0.00,,,0.00,Wunderground v.1.15,2013-01-13 16:25:00,
2013-01-13 08:30:00,39.0,31.7,30.15,SW,225,0.0,-999.0,75,0.00,,,0.00,Wunderground v.1.15,2013-01-13 16:30:00,
2013-01-13 08:35:00,40.8,31.8,30.15,SW,225,0.0,-999.0,70,0.00,,,0.00,Wunderground v.1.15,2013-01-13 16:35:00,
2013-01-13 08:40:00,40.8,31.8,30.15,SW,225,0.0,-999.0,70,0.00,,,0.00,Wunderground v.1.15,2013-01-13 16:40:00,
2013-01-13 08:45:00,42.4,31.1,30.16,SW,225,0.0,-999.0,64,0.00,,,0.00,Wunderground v.1.15,2013-01-13 16:45:00,
2013-01-13 08:50:00,42.4,31.1,30.16,SW,225,0.0,-999.0,64,0.00,,,0.00,Wunderground v.1.15,2013-01-13 16:50:00,
2013-01-13 09:02:00,44.1,30.7,30.16,SW,225,0.0,-999.0,59,0.00,,,0.00,Wunderground v.1.15,2013-01-13 17:02:00,